Terminal Aerodrome Forecast
Issued by NWS Sioux Falls, SD

Home | Current Version | Previous Version | Graphics & Text | Print | Product List | Glossary On
Versions: 1 2 3 4 5 6 7 8 9 10 11 12 13 14 15 16 17 18
587
FTUS43 KFSD 141953 AAD
TAFHON
TAF AMD
KHON 141953Z 1420/1518 20008KT P6SM SCT014 BKN180
     FM142200 29007KT P6SM BKN150
     FM150000 32008KT P6SM BKN200
     FM150900 30012KT P6SM SKC
     FM151300 31011G19KT P6SM SCT020
     FM151600 32014G23KT P6SM FEW150=

USA.gov is the U.S. government's official web portal to all federal, state and local government web resources and services.